sensor_id;sensor_type;location;lat;lon;timestamp;P1;durP1;ratioP1;P2;durP2;ratioP2
68384;SDS011;55336;43.062;25.626;2023-03-01T00:01:03;0.88;;;0.85;;
68384;SDS011;55336;43.062;25.626;2023-03-01T00:03:31;1.52;;;1.42;;
68384;SDS011;55336;43.062;25.626;2023-03-01T00:05:57;1.65;;;1.55;;
68384;SDS011;55336;43.062;25.626;2023-03-01T00:10:49;1.50;;;1.40;;
68384;SDS011;55336;43.062;25.626;2023-03-01T00:13:24;1.33;;;1.33;;
68384;SDS011;55336;43.062;25.626;2023-03-01T00:18:15;1.52;;;1.50;;
68384;SDS011;55336;43.062;25.626;2023-03-01T00:20:41;1.30;;;1.27;;
68384;SDS011;55336;43.062;25.626;2023-03-01T00:23:14;1.33;;;1.33;;
68384;SDS011;55336;43.062;25.626;2023-03-01T00:28:08;2.63;;;1.38;;
68384;SDS011;55336;43.062;25.626;2023-03-01T00:33:00;2.58;;;2.10;;
68384;SDS011;55336;43.062;25.626;2023-03-01T00:37:51;1.67;;;1.38;;
68384;SDS011;55336;43.062;25.626;2023-03-01T00:40:26;1.27;;;1.27;;
68384;SDS011;55336;43.062;25.626;2023-03-01T00:42:52;1.92;;;1.60;;
68384;SDS011;55336;43.062;25.626;2023-03-01T00:47:44;1.67;;;1.58;;
68384;SDS011;55336;43.062;25.626;2023-03-01T00:50:10;1.50;;;1.25;;
68384;SDS011;55336;43.062;25.626;2023-03-01T00:52:37;1.60;;;1.50;;
68384;SDS011;55336;43.062;25.626;2023-03-01T00:55:03;1.50;;;1.40;;
68384;SDS011;55336;43.062;25.626;2023-03-01T00:57:30;1.00;;;1.00;;
68384;SDS011;55336;43.062;25.626;2023-03-01T00:59:56;1.67;;;1.60;;
68384;SDS011;55336;43.062;25.626;2023-03-01T01:04:48;1.10;;;1.10;;
68384;SDS011;55336;43.062;25.626;2023-03-01T01:07:14;0.73;;;0.73;;
68384;SDS011;55336;43.062;25.626;2023-03-01T01:09:40;0.70;;;0.70;;
68384;SDS011;55336;43.062;25.626;2023-03-01T01:12:06;0.90;;;0.90;;
68384;SDS011;55336;43.062;25.626;2023-03-01T01:14:32;0.85;;;0.85;;
68384;SDS011;55336;43.062;25.626;2023-03-01T01:16:59;1.77;;;1.55;;
68384;SDS011;55336;43.062;25.626;2023-03-01T01:21:51;5.10;;;1.63;;
68384;SDS011;55336;43.062;25.626;2023-03-01T01:24:17;1.33;;;1.30;;
68384;SDS011;55336;43.062;25.626;2023-03-01T01:26:43;1.73;;;1.63;;
68384;SDS011;55336;43.062;25.626;2023-03-01T01:29:10;0.70;;;0.70;;
68384;SDS011;55336;43.062;25.626;2023-03-01T01:31:36;1.33;;;1.17;;
68384;SDS011;55336;43.062;25.626;2023-03-01T01:34:05;1.15;;;1.15;;
68384;SDS011;55336;43.062;25.626;2023-03-01T01:36:32;1.55;;;0.90;;
68384;SDS011;55336;43.062;25.626;2023-03-01T01:38:59;0.63;;;0.63;;
68384;SDS011;55336;43.062;25.626;2023-03-01T01:41:26;1.23;;;1.20;;
68384;SDS011;55336;43.062;25.626;2023-03-01T01:46:40;0.68;;;0.68;;
68384;SDS011;55336;43.062;25.626;2023-03-01T01:49:27;0.90;;;0.90;;
68384;SDS011;55336;43.062;25.626;2023-03-01T01:51:59;1.13;;;1.13;;
68384;SDS011;55336;43.062;25.626;2023-03-01T01:57:20;0.95;;;0.95;;
68384;SDS011;55336;43.062;25.626;2023-03-01T01:59:56;0.77;;;0.77;;
68384;SDS011;55336;43.062;25.626;2023-03-01T02:02:25;0.50;;;0.50;;
68384;SDS011;55336;43.062;25.626;2023-03-01T02:04:53;0.80;;;0.80;;
68384;SDS011;55336;43.062;25.626;2023-03-01T02:07:24;0.80;;;0.80;;
68384;SDS011;55336;43.062;25.626;2023-03-01T02:09:51;0.80;;;0.80;;
68384;SDS011;55336;43.062;25.626;2023-03-01T02:12:19;0.70;;;0.70;;
68384;SDS011;55336;43.062;25.626;2023-03-01T02:14:48;0.60;;;0.60;;
68384;SDS011;55336;43.062;25.626;2023-03-01T02:19:44;0.85;;;0.85;;
68384;SDS011;55336;43.062;25.626;2023-03-01T02:27:33;0.60;;;0.60;;
68384;SDS011;55336;43.062;25.626;2023-03-01T02:30:17;1.17;;;1.05;;
68384;SDS011;55336;43.062;25.626;2023-03-01T02:32:44;0.80;;;0.80;;
68384;SDS011;55336;43.062;25.626;2023-03-01T02:35:12;0.60;;;0.60;;
68384;SDS011;55336;43.062;25.626;2023-03-01T02:37:40;0.75;;;0.75;;
68384;SDS011;55336;43.062;25.626;2023-03-01T02:40:08;0.55;;;0.55;;
68384;SDS011;55336;43.062;25.626;2023-03-01T02:42:50;0.70;;;0.70;;
68384;SDS011;55336;43.062;25.626;2023-03-01T02:45:19;0.50;;;0.50;;
68384;SDS011;55336;43.062;25.626;2023-03-01T02:50:18;0.80;;;0.80;;
68384;SDS011;55336;43.062;25.626;2023-03-01T02:53:01;0.50;;;0.50;;
68384;SDS011;55336;43.062;25.626;2023-03-01T02:55:36;0.77;;;0.77;;
68384;SDS011;55336;43.062;25.626;2023-03-01T03:00:30;0.70;;;0.70;;
68384;SDS011;55336;43.062;25.626;2023-03-01T03:02:59;0.50;;;0.50;;
68384;SDS011;55336;43.062;25.626;2023-03-01T03:07:52;0.70;;;0.70;;
68384;SDS011;55336;43.062;25.626;2023-03-01T03:10:19;0.50;;;0.50;;
68384;SDS011;55336;43.062;25.626;2023-03-01T03:12:52;0.52;;;0.52;;
68384;SDS011;55336;43.062;25.626;2023-03-01T03:15:20;0.50;;;0.50;;
68384;SDS011;55336;43.062;25.626;2023-03-01T03:17:47;0.70;;;0.70;;
68384;SDS011;55336;43.062;25.626;2023-03-01T03:20:14;0.50;;;0.50;;
68384;SDS011;55336;43.062;25.626;2023-03-01T03:22:47;0.60;;;0.60;;
68384;SDS011;55336;43.062;25.626;2023-03-01T03:25:15;0.88;;;0.88;;
68384;SDS011;55336;43.062;25.626;2023-03-01T03:27:42;0.50;;;0.50;;
68384;SDS011;55336;43.062;25.626;2023-03-01T03:30:10;0.50;;;0.50;;
68384;SDS011;55336;43.062;25.626;2023-03-01T03:32:39;0.70;;;0.70;;
68384;SDS011;55336;43.062;25.626;2023-03-01T03:35:06;0.50;;;0.50;;
68384;SDS011;55336;43.062;25.626;2023-03-01T03:37:37;0.50;;;0.50;;
68384;SDS011;55336;43.062;25.626;2023-03-01T03:40:24;0.50;;;0.50;;
68384;SDS011;55336;43.062;25.626;2023-03-01T03:42:51;0.80;;;0.80;;
68384;SDS011;55336;43.062;25.626;2023-03-01T03:47:43;0.80;;;0.80;;
68384;SDS011;55336;43.062;25.626;2023-03-01T03:50:09;0.60;;;0.60;;
68384;SDS011;55336;43.062;25.626;2023-03-01T03:52:36;0.60;;;0.60;;
68384;SDS011;55336;43.062;25.626;2023-03-01T03:57:28;0.70;;;0.70;;
68384;SDS011;55336;43.062;25.626;2023-03-01T03:59:54;0.60;;;0.60;;
68384;SDS011;55336;43.062;25.626;2023-03-01T04:04:49;0.50;;;0.50;;
68384;SDS011;55336;43.062;25.626;2023-03-01T04:09:41;0.60;;;0.60;;
68384;SDS011;55336;43.062;25.626;2023-03-01T04:12:08;0.57;;;0.57;;
68384;SDS011;55336;43.062;25.626;2023-03-01T04:14:35;0.60;;;0.60;;
68384;SDS011;55336;43.062;25.626;2023-03-01T04:17:01;0.60;;;0.60;;
68384;SDS011;55336;43.062;25.626;2023-03-01T04:19:33;0.50;;;0.50;;
68384;SDS011;55336;43.062;25.626;2023-03-01T04:22:01;0.70;;;0.70;;
68384;SDS011;55336;43.062;25.626;2023-03-01T04:24:37;0.60;;;0.60;;
68384;SDS011;55336;43.062;25.626;2023-03-01T04:27:03;1.55;;;0.70;;
68384;SDS011;55336;43.062;25.626;2023-03-01T04:31:55;0.50;;;0.50;;
68384;SDS011;55336;43.062;25.626;2023-03-01T04:36:46;0.65;;;0.65;;
68384;SDS011;55336;43.062;25.626;2023-03-01T04:41:38;0.50;;;0.50;;
68384;SDS011;55336;43.062;25.626;2023-03-01T04:44:05;0.50;;;0.50;;
68384;SDS011;55336;43.062;25.626;2023-03-01T04:46:32;0.50;;;0.50;;
68384;SDS011;55336;43.062;25.626;2023-03-01T04:51:23;0.50;;;0.50;;
68384;SDS011;55336;43.062;25.626;2023-03-01T04:56:15;0.50;;;0.50;;
68384;SDS011;55336;43.062;25.626;2023-03-01T04:58:43;0.60;;;0.60;;
68384;SDS011;55336;43.062;25.626;2023-03-01T05:01:14;0.70;;;0.70;;
68384;SDS011;55336;43.062;25.626;2023-03-01T05:03:45;1.63;;;1.00;;
68384;SDS011;55336;43.062;25.626;2023-03-01T05:06:15;0.73;;;0.73;;
68384;SDS011;55336;43.062;25.626;2023-03-01T05:08:42;0.50;;;0.50;;
68384;SDS011;55336;43.062;25.626;2023-03-01T05:11:08;0.50;;;0.50;;
68384;SDS011;55336;43.062;25.626;2023-03-01T05:13:36;0.50;;;0.50;;
68384;SDS011;55336;43.062;25.626;2023-03-01T05:16:03;0.93;;;0.93;;
68384;SDS011;55336;43.062;25.626;2023-03-01T05:18:30;0.50;;;0.50;;
68384;SDS011;55336;43.062;25.626;2023-03-01T05:21:03;0.60;;;0.60;;
68384;SDS011;55336;43.062;25.626;2023-03-01T05:23:31;0.65;;;0.65;;
68384;SDS011;55336;43.062;25.626;2023-03-01T05:25:59;0.75;;;0.75;;
68384;SDS011;55336;43.062;25.626;2023-03-01T05:28:25;0.60;;;0.60;;
68384;SDS011;55336;43.062;25.626;2023-03-01T05:30:53;0.60;;;0.60;;
68384;SDS011;55336;43.062;25.626;2023-03-01T05:33:19;0.68;;;0.68;;
68384;SDS011;55336;43.062;25.626;2023-03-01T05:35:47;1.08;;;0.60;;
68384;SDS011;55336;43.062;25.626;2023-03-01T05:38:14;0.80;;;0.80;;
68384;SDS011;55336;43.062;25.626;2023-03-01T05:40:44;0.55;;;0.55;;
68384;SDS011;55336;43.062;25.626;2023-03-01T05:43:12;0.68;;;0.68;;
68384;SDS011;55336;43.062;25.626;2023-03-01T05:45:39;0.57;;;0.57;;
68384;SDS011;55336;43.062;25.626;2023-03-01T05:48:06;0.75;;;0.75;;
68384;SDS011;55336;43.062;25.626;2023-03-01T05:50:34;0.85;;;0.70;;
68384;SDS011;55336;43.062;25.626;2023-03-01T05:53:03;0.65;;;0.65;;
68384;SDS011;55336;43.062;25.626;2023-03-01T05:55:32;0.70;;;0.70;;
68384;SDS011;55336;43.062;25.626;2023-03-01T05:57:59;0.55;;;0.55;;
68384;SDS011;55336;43.062;25.626;2023-03-01T06:00:27;0.70;;;0.70;;
68384;SDS011;55336;43.062;25.626;2023-03-01T06:02:54;0.70;;;0.70;;
68384;SDS011;55336;43.062;25.626;2023-03-01T06:05:20;0.82;;;0.82;;
68384;SDS011;55336;43.062;25.626;2023-03-01T06:07:47;0.63;;;0.63;;
68384;SDS011;55336;43.062;25.626;2023-03-01T06:12:40;0.50;;;0.50;;
68384;SDS011;55336;43.062;25.626;2023-03-01T06:15:07;0.63;;;0.63;;
68384;SDS011;55336;43.062;25.626;2023-03-01T06:17:37;0.50;;;0.50;;
68384;SDS011;55336;43.062;25.626;2023-03-01T06:20:07;0.55;;;0.55;;
68384;SDS011;55336;43.062;25.626;2023-03-01T06:22:35;0.80;;;0.80;;
68384;SDS011;55336;43.062;25.626;2023-03-01T06:25:01;0.60;;;0.60;;
68384;SDS011;55336;43.062;25.626;2023-03-01T06:29:52;0.63;;;0.63;;
68384;SDS011;55336;43.062;25.626;2023-03-01T06:32:18;0.50;;;0.50;;
68384;SDS011;55336;43.062;25.626;2023-03-01T06:34:44;0.60;;;0.60;;
68384;SDS011;55336;43.062;25.626;2023-03-01T06:37:11;1.25;;;1.15;;
68384;SDS011;55336;43.062;25.626;2023-03-01T06:42:03;0.65;;;0.65;;
68384;SDS011;55336;43.062;25.626;2023-03-01T06:46:54;0.60;;;0.60;;
68384;SDS011;55336;43.062;25.626;2023-03-01T06:51:46;0.70;;;0.70;;
68384;SDS011;55336;43.062;25.626;2023-03-01T06:54:12;1.15;;;1.05;;
68384;SDS011;55336;43.062;25.626;2023-03-01T06:56:38;0.60;;;0.60;;
68384;SDS011;55336;43.062;25.626;2023-03-01T07:01:31;0.60;;;0.60;;
68384;SDS011;55336;43.062;25.626;2023-03-01T07:06:23;1.35;;;1.35;;
68384;SDS011;55336;43.062;25.626;2023-03-01T07:11:15;1.48;;;1.38;;
68384;SDS011;55336;43.062;25.626;2023-03-01T07:13:41;0.70;;;0.70;;
68384;SDS011;55336;43.062;25.626;2023-03-01T07:18:33;0.70;;;0.70;;
68384;SDS011;55336;43.062;25.626;2023-03-01T07:23:29;1.05;;;1.05;;
68384;SDS011;55336;43.062;25.626;2023-03-01T07:25:55;1.02;;;1.02;;
68384;SDS011;55336;43.062;25.626;2023-03-01T07:30:50;1.05;;;1.02;;
68384;SDS011;55336;43.062;25.626;2023-03-01T07:35:41;5.47;;;1.45;;
68384;SDS011;55336;43.062;25.626;2023-03-01T07:40:33;1.40;;;1.40;;
68384;SDS011;55336;43.062;25.626;2023-03-01T07:45:26;1.85;;;1.75;;
68384;SDS011;55336;43.062;25.626;2023-03-01T07:47:53;1.80;;;1.70;;
68384;SDS011;55336;43.062;25.626;2023-03-01T07:50:20;1.98;;;1.80;;
68384;SDS011;55336;43.062;25.626;2023-03-01T07:52:46;1.20;;;1.20;;
68384;SDS011;55336;43.062;25.626;2023-03-01T07:55:13;1.05;;;1.05;;
68384;SDS011;55336;43.062;25.626;2023-03-01T07:57:40;0.60;;;0.60;;
68384;SDS011;55336;43.062;25.626;2023-03-01T08:02:32;1.80;;;1.70;;
68384;SDS011;55336;43.062;25.626;2023-03-01T08:04:58;1.00;;;1.00;;
68384;SDS011;55336;43.062;25.626;2023-03-01T08:09:49;1.15;;;1.15;;
68384;SDS011;55336;43.062;25.626;2023-03-01T08:14:44;1.50;;;1.40;;
68384;SDS011;55336;43.062;25.626;2023-03-01T08:19:35;0.75;;;0.75;;
68384;SDS011;55336;43.062;25.626;2023-03-01T08:24:28;1.02;;;1.02;;
68384;SDS011;55336;43.062;25.626;2023-03-01T08:26:54;1.30;;;1.20;;
68384;SDS011;55336;43.062;25.626;2023-03-01T08:29:20;0.70;;;0.70;;
68384;SDS011;55336;43.062;25.626;2023-03-01T08:31:46;0.80;;;0.80;;
68384;SDS011;55336;43.062;25.626;2023-03-01T08:34:13;0.93;;;0.93;;
68384;SDS011;55336;43.062;25.626;2023-03-01T08:36:41;1.02;;;1.02;;
68384;SDS011;55336;43.062;25.626;2023-03-01T08:39:09;0.88;;;0.88;;
68384;SDS011;55336;43.062;25.626;2023-03-01T08:41:36;1.10;;;1.02;;
68384;SDS011;55336;43.062;25.626;2023-03-01T08:44:03;0.70;;;0.70;;
68384;SDS011;55336;43.062;25.626;2023-03-01T08:46:39;1.27;;;1.20;;
68384;SDS011;55336;43.062;25.626;2023-03-01T08:49:06;0.80;;;0.80;;
68384;SDS011;55336;43.062;25.626;2023-03-01T08:51:33;0.52;;;0.52;;
68384;SDS011;55336;43.062;25.626;2023-03-01T08:57:03;0.73;;;0.73;;
68384;SDS011;55336;43.062;25.626;2023-03-01T08:59:28;0.70;;;0.70;;
68384;SDS011;55336;43.062;25.626;2023-03-01T09:01:55;0.80;;;0.80;;
68384;SDS011;55336;43.062;25.626;2023-03-01T09:04:22;1.00;;;0.95;;
68384;SDS011;55336;43.062;25.626;2023-03-01T09:09:15;1.10;;;1.10;;
68384;SDS011;55336;43.062;25.626;2023-03-01T09:11:42;0.90;;;0.90;;
68384;SDS011;55336;43.062;25.626;2023-03-01T09:14:10;0.82;;;0.82;;
68384;SDS011;55336;43.062;25.626;2023-03-01T09:16:37;0.73;;;0.73;;
68384;SDS011;55336;43.062;25.626;2023-03-01T09:21:29;0.75;;;0.75;;
68384;SDS011;55336;43.062;25.626;2023-03-01T09:28:48;0.47;;;0.47;;
68384;SDS011;55336;43.062;25.626;2023-03-01T09:31:16;0.90;;;0.90;;
68384;SDS011;55336;43.062;25.626;2023-03-01T09:33:48;1.13;;;1.05;;
68384;SDS011;55336;43.062;25.626;2023-03-01T09:36:16;0.40;;;0.40;;
68384;SDS011;55336;43.062;25.626;2023-03-01T09:38:45;1.08;;;1.08;;
68384;SDS011;55336;43.062;25.626;2023-03-01T09:44:03;0.93;;;0.93;;
68384;SDS011;55336;43.062;25.626;2023-03-01T09:46:36;0.60;;;0.60;;
68384;SDS011;55336;43.062;25.626;2023-03-01T09:49:10;1.15;;;1.05;;
68384;SDS011;55336;43.062;25.626;2023-03-01T09:51:42;0.88;;;0.88;;
68384;SDS011;55336;43.062;25.626;2023-03-01T09:54:14;0.50;;;0.50;;
68384;SDS011;55336;43.062;25.626;2023-03-01T10:04:52;0.80;;;0.80;;
68384;SDS011;55336;43.062;25.626;2023-03-01T10:09:54;0.70;;;0.70;;
68384;SDS011;55336;43.062;25.626;2023-03-01T10:17:48;0.80;;;0.80;;
68384;SDS011;55336;43.062;25.626;2023-03-01T10:20:26;0.82;;;0.82;;
68384;SDS011;55336;43.062;25.626;2023-03-01T10:23:03;0.73;;;0.73;;
68384;SDS011;55336;43.062;25.626;2023-03-01T10:28:31;0.83;;;0.83;;
68384;SDS011;55336;43.062;25.626;2023-03-01T10:31:21;1.55;;;0.68;;
68384;SDS011;55336;43.062;25.626;2023-03-01T10:33:53;0.73;;;0.73;;
68384;SDS011;55336;43.062;25.626;2023-03-01T10:36:21;1.60;;;0.90;;
68384;SDS011;55336;43.062;25.626;2023-03-01T10:38:54;0.65;;;0.65;;
68384;SDS011;55336;43.062;25.626;2023-03-01T10:41:22;0.93;;;0.93;;
68384;SDS011;55336;43.062;25.626;2023-03-01T10:43:51;0.73;;;0.73;;
68384;SDS011;55336;43.062;25.626;2023-03-01T10:48:53;0.55;;;0.55;;
68384;SDS011;55336;43.062;25.626;2023-03-01T10:51:36;0.70;;;0.70;;
68384;SDS011;55336;43.062;25.626;2023-03-01T10:54:04;1.10;;;1.10;;
68384;SDS011;55336;43.062;25.626;2023-03-01T10:56:50;1.30;;;1.20;;
68384;SDS011;55336;43.062;25.626;2023-03-01T10:59:39;1.00;;;1.00;;
68384;SDS011;55336;43.062;25.626;2023-03-01T11:07:23;1.00;;;1.00;;
68384;SDS011;55336;43.062;25.626;2023-03-01T11:12:15;0.75;;;0.75;;
68384;SDS011;55336;43.062;25.626;2023-03-01T11:14:46;1.08;;;0.98;;
68384;SDS011;55336;43.062;25.626;2023-03-01T11:17:18;1.05;;;1.05;;
68384;SDS011;55336;43.062;25.626;2023-03-01T11:20:05;0.75;;;0.75;;
68384;SDS011;55336;43.062;25.626;2023-03-01T11:22:32;5.70;;;1.48;;
68384;SDS011;55336;43.062;25.626;2023-03-01T11:25:00;0.50;;;0.50;;
68384;SDS011;55336;43.062;25.626;2023-03-01T11:27:35;0.70;;;0.70;;
68384;SDS011;55336;43.062;25.626;2023-03-01T11:35:55;0.50;;;0.50;;
68384;SDS011;55336;43.062;25.626;2023-03-01T11:38:31;0.70;;;0.70;;
68384;SDS011;55336;43.062;25.626;2023-03-01T11:41:01;0.82;;;0.82;;
68384;SDS011;55336;43.062;25.626;2023-03-01T11:43:51;0.60;;;0.60;;
68384;SDS011;55336;43.062;25.626;2023-03-01T11:51:32;0.52;;;0.47;;
68384;SDS011;55336;43.062;25.626;2023-03-01T11:57:41;0.40;;;0.40;;
68384;SDS011;55336;43.062;25.626;2023-03-01T12:12:27;1.02;;;1.02;;
68384;SDS011;55336;43.062;25.626;2023-03-01T12:20:11;0.93;;;0.93;;
68384;SDS011;55336;43.062;25.626;2023-03-01T12:25:39;2.05;;;1.52;;
68384;SDS011;55336;43.062;25.626;2023-03-01T12:43:28;1.10;;;1.10;;
68384;SDS011;55336;43.062;25.626;2023-03-01T12:48:49;0.90;;;0.90;;
68384;SDS011;55336;43.062;25.626;2023-03-01T12:51:28;1.38;;;1.25;;
68384;SDS011;55336;43.062;25.626;2023-03-01T12:53:58;1.63;;;1.52;;
68384;SDS011;55336;43.062;25.626;2023-03-01T12:56:27;2.33;;;2.13;;
68384;SDS011;55336;43.062;25.626;2023-03-01T13:06:55;1.17;;;1.10;;
68384;SDS011;55336;43.062;25.626;2023-03-01T13:09:49;0.93;;;0.93;;
68384;SDS011;55336;43.062;25.626;2023-03-01T13:15:35;1.73;;;1.63;;
68384;SDS011;55336;43.062;25.626;2023-03-01T13:18:28;1.58;;;1.48;;
68384;SDS011;55336;43.062;25.626;2023-03-01T13:20:51;1.15;;;1.15;;
68384;SDS011;55336;43.062;25.626;2023-03-01T13:31:02;1.33;;;1.23;;
68384;SDS011;55336;43.062;25.626;2023-03-01T13:41:08;1.08;;;1.08;;
68384;SDS011;55336;43.062;25.626;2023-03-01T13:43:38;1.48;;;1.10;;
68384;SDS011;55336;43.062;25.626;2023-03-01T13:46:11;1.20;;;1.20;;
68384;SDS011;55336;43.062;25.626;2023-03-01T13:51:10;0.82;;;0.82;;
68384;SDS011;55336;43.062;25.626;2023-03-01T13:53:44;1.00;;;1.00;;
68384;SDS011;55336;43.062;25.626;2023-03-01T13:56:12;1.67;;;1.58;;
68384;SDS011;55336;43.062;25.626;2023-03-01T14:03:53;0.70;;;0.70;;
68384;SDS011;55336;43.062;25.626;2023-03-01T14:06:30;1.13;;;1.13;;
68384;SDS011;55336;43.062;25.626;2023-03-01T14:09:10;1.83;;;1.73;;
68384;SDS011;55336;43.062;25.626;2023-03-01T14:19:58;5.00;;;1.38;;
68384;SDS011;55336;43.062;25.626;2023-03-01T14:22:30;2.50;;;1.15;;
68384;SDS011;55336;43.062;25.626;2023-03-01T14:25:00;2.15;;;1.92;;
68384;SDS011;55336;43.062;25.626;2023-03-01T14:27:30;1.45;;;1.35;;
68384;SDS011;55336;43.062;25.626;2023-03-01T14:30:01;1.35;;;1.20;;
68384;SDS011;55336;43.062;25.626;2023-03-01T14:32:55;1.50;;;1.27;;
68384;SDS011;55336;43.062;25.626;2023-03-01T14:35:29;0.98;;;0.98;;
68384;SDS011;55336;43.062;25.626;2023-03-01T14:37:57;0.93;;;0.93;;
68384;SDS011;55336;43.062;25.626;2023-03-01T14:40:28;1.30;;;1.30;;
68384;SDS011;55336;43.062;25.626;2023-03-01T14:42:58;1.42;;;1.40;;
68384;SDS011;55336;43.062;25.626;2023-03-01T14:45:26;1.00;;;1.00;;
68384;SDS011;55336;43.062;25.626;2023-03-01T14:47:54;2.10;;;2.00;;
68384;SDS011;55336;43.062;25.626;2023-03-01T14:50:30;1.85;;;1.73;;
68384;SDS011;55336;43.062;25.626;2023-03-01T14:53:29;1.75;;;1.50;;
68384;SDS011;55336;43.062;25.626;2023-03-01T14:56:14;0.85;;;0.85;;
68384;SDS011;55336;43.062;25.626;2023-03-01T14:59:09;1.10;;;1.10;;
68384;SDS011;55336;43.062;25.626;2023-03-01T15:01:51;0.73;;;0.73;;
68384;SDS011;55336;43.062;25.626;2023-03-01T15:04:21;0.70;;;0.70;;
68384;SDS011;55336;43.062;25.626;2023-03-01T15:07:01;0.80;;;0.80;;
68384;SDS011;55336;43.062;25.626;2023-03-01T15:09:44;0.88;;;0.88;;
68384;SDS011;55336;43.062;25.626;2023-03-01T15:15:39;0.80;;;0.80;;
68384;SDS011;55336;43.062;25.626;2023-03-01T15:18:03;0.40;;;0.40;;
68384;SDS011;55336;43.062;25.626;2023-03-01T15:20:51;0.47;;;0.47;;
68384;SDS011;55336;43.062;25.626;2023-03-01T15:23:24;0.70;;;0.70;;
68384;SDS011;55336;43.062;25.626;2023-03-01T15:25:57;1.20;;;1.02;;
68384;SDS011;55336;43.062;25.626;2023-03-01T15:28:30;0.90;;;0.90;;
68384;SDS011;55336;43.062;25.626;2023-03-01T15:31:11;0.70;;;0.70;;
68384;SDS011;55336;43.062;25.626;2023-03-01T15:34:07;0.52;;;0.52;;
68384;SDS011;55336;43.062;25.626;2023-03-01T15:36:44;0.70;;;0.70;;
68384;SDS011;55336;43.062;25.626;2023-03-01T15:44:37;0.60;;;0.60;;
68384;SDS011;55336;43.062;25.626;2023-03-01T15:47:20;0.88;;;0.88;;
68384;SDS011;55336;43.062;25.626;2023-03-01T15:49:53;0.65;;;0.65;;
68384;SDS011;55336;43.062;25.626;2023-03-01T15:52:27;0.80;;;0.80;;
68384;SDS011;55336;43.062;25.626;2023-03-01T15:55:16;0.77;;;0.77;;
68384;SDS011;55336;43.062;25.626;2023-03-01T15:57:48;0.73;;;0.73;;
68384;SDS011;55336;43.062;25.626;2023-03-01T16:00:15;0.98;;;0.98;;
68384;SDS011;55336;43.062;25.626;2023-03-01T16:02:43;0.60;;;0.60;;
68384;SDS011;55336;43.062;25.626;2023-03-01T16:05:15;0.80;;;0.80;;
68384;SDS011;55336;43.062;25.626;2023-03-01T16:07:49;1.17;;;1.17;;
68384;SDS011;55336;43.062;25.626;2023-03-01T16:10:15;1.65;;;1.58;;
68384;SDS011;55336;43.062;25.626;2023-03-01T16:12:42;1.40;;;1.15;;
68384;SDS011;55336;43.062;25.626;2023-03-01T16:15:21;1.00;;;1.00;;
68384;SDS011;55336;43.062;25.626;2023-03-01T16:17:52;0.80;;;0.80;;
68384;SDS011;55336;43.062;25.626;2023-03-01T16:20:22;1.00;;;1.00;;
68384;SDS011;55336;43.062;25.626;2023-03-01T16:22:49;0.88;;;0.88;;
68384;SDS011;55336;43.062;25.626;2023-03-01T16:25:19;0.82;;;0.82;;
68384;SDS011;55336;43.062;25.626;2023-03-01T16:27:49;1.50;;;1.40;;
68384;SDS011;55336;43.062;25.626;2023-03-01T16:30:22;0.98;;;0.98;;
68384;SDS011;55336;43.062;25.626;2023-03-01T16:32:57;1.08;;;1.05;;
68384;SDS011;55336;43.062;25.626;2023-03-01T16:35:23;1.33;;;1.23;;
68384;SDS011;55336;43.062;25.626;2023-03-01T16:37:50;1.38;;;1.27;;
68384;SDS011;55336;43.062;25.626;2023-03-01T16:40:24;2.20;;;1.52;;
68384;SDS011;55336;43.062;25.626;2023-03-01T16:42:55;1.23;;;1.23;;
68384;SDS011;55336;43.062;25.626;2023-03-01T16:45:29;1.85;;;1.70;;
68384;SDS011;55336;43.062;25.626;2023-03-01T16:48:05;1.65;;;1.55;;
68384;SDS011;55336;43.062;25.626;2023-03-01T16:50:33;1.27;;;1.15;;
68384;SDS011;55336;43.062;25.626;2023-03-01T16:53:20;1.20;;;1.20;;
68384;SDS011;55336;43.062;25.626;2023-03-01T16:55:57;1.50;;;1.40;;
68384;SDS011;55336;43.062;25.626;2023-03-01T16:58:24;1.30;;;1.10;;
68384;SDS011;55336;43.062;25.626;2023-03-01T17:00:52;0.93;;;0.93;;
68384;SDS011;55336;43.062;25.626;2023-03-01T17:03:21;0.98;;;0.98;;
68384;SDS011;55336;43.062;25.626;2023-03-01T17:05:48;1.10;;;1.10;;
68384;SDS011;55336;43.062;25.626;2023-03-01T17:08:14;1.65;;;1.55;;
68384;SDS011;55336;43.062;25.626;2023-03-01T17:10:43;1.02;;;1.02;;
68384;SDS011;55336;43.062;25.626;2023-03-01T17:13:13;1.00;;;1.00;;
68384;SDS011;55336;43.062;25.626;2023-03-01T17:15:39;2.17;;;1.65;;
68384;SDS011;55336;43.062;25.626;2023-03-01T17:18:12;0.80;;;0.80;;
68384;SDS011;55336;43.062;25.626;2023-03-01T17:20:44;0.77;;;0.77;;
68384;SDS011;55336;43.062;25.626;2023-03-01T17:25:40;0.98;;;0.90;;
68384;SDS011;55336;43.062;25.626;2023-03-01T17:28:10;1.00;;;0.98;;
68384;SDS011;55336;43.062;25.626;2023-03-01T17:30:40;0.85;;;0.85;;
68384;SDS011;55336;43.062;25.626;2023-03-01T17:33:12;0.57;;;0.57;;
68384;SDS011;55336;43.062;25.626;2023-03-01T17:35:39;0.50;;;0.50;;
68384;SDS011;55336;43.062;25.626;2023-03-01T17:38:06;0.82;;;0.82;;
68384;SDS011;55336;43.062;25.626;2023-03-01T17:40:32;0.60;;;0.60;;
68384;SDS011;55336;43.062;25.626;2023-03-01T17:43:05;0.57;;;0.57;;
68384;SDS011;55336;43.062;25.626;2023-03-01T17:45:38;0.68;;;0.68;;
68384;SDS011;55336;43.062;25.626;2023-03-01T17:48:04;0.50;;;0.50;;
68384;SDS011;55336;43.062;25.626;2023-03-01T17:50:31;0.70;;;0.70;;
68384;SDS011;55336;43.062;25.626;2023-03-01T17:53:00;0.70;;;0.70;;
68384;SDS011;55336;43.062;25.626;2023-03-01T17:58:21;1.08;;;1.08;;
68384;SDS011;55336;43.062;25.626;2023-03-01T18:00:53;0.70;;;0.70;;
68384;SDS011;55336;43.062;25.626;2023-03-01T18:03:31;1.10;;;1.10;;
68384;SDS011;55336;43.062;25.626;2023-03-01T18:08:27;1.02;;;0.93;;
68384;SDS011;55336;43.062;25.626;2023-03-01T18:13:22;1.05;;;1.05;;
68384;SDS011;55336;43.062;25.626;2023-03-01T18:15:48;1.80;;;1.70;;
68384;SDS011;55336;43.062;25.626;2023-03-01T18:20:42;1.85;;;1.48;;
68384;SDS011;55336;43.062;25.626;2023-03-01T18:23:11;2.28;;;2.08;;
68384;SDS011;55336;43.062;25.626;2023-03-01T18:25:38;1.88;;;1.77;;
68384;SDS011;55336;43.062;25.626;2023-03-01T18:28:09;1.77;;;1.67;;
68384;SDS011;55336;43.062;25.626;2023-03-01T18:33:06;1.52;;;1.42;;
68384;SDS011;55336;43.062;25.626;2023-03-01T18:35:36;10.23;;;9.25;;
68384;SDS011;55336;43.062;25.626;2023-03-01T18:38:07;11.85;;;10.65;;
68384;SDS011;55336;43.062;25.626;2023-03-01T18:40:36;11.38;;;10.38;;
68384;SDS011;55336;43.062;25.626;2023-03-01T18:43:02;11.38;;;10.27;;
68384;SDS011;55336;43.062;25.626;2023-03-01T18:47:55;12.40;;;11.05;;
68384;SDS011;55336;43.062;25.626;2023-03-01T18:50:21;10.90;;;9.93;;
68384;SDS011;55336;43.062;25.626;2023-03-01T18:52:53;11.65;;;10.55;;
68384;SDS011;55336;43.062;25.626;2023-03-01T18:55:34;10.95;;;9.98;;
68384;SDS011;55336;43.062;25.626;2023-03-01T18:58:03;11.52;;;10.57;;
68384;SDS011;55336;43.062;25.626;2023-03-01T19:00:31;11.18;;;10.18;;
68384;SDS011;55336;43.062;25.626;2023-03-01T19:03:00;13.02;;;11.82;;
68384;SDS011;55336;43.062;25.626;2023-03-01T19:05:35;12.13;;;10.95;;
68384;SDS011;55336;43.062;25.626;2023-03-01T19:08:11;12.57;;;11.43;;
68384;SDS011;55336;43.062;25.626;2023-03-01T19:10:39;14.07;;;12.75;;
68384;SDS011;55336;43.062;25.626;2023-03-01T19:13:05;12.27;;;11.27;;
68384;SDS011;55336;43.062;25.626;2023-03-01T19:17:57;14.50;;;13.10;;
68384;SDS011;55336;43.062;25.626;2023-03-01T19:20:23;13.35;;;11.80;;
68384;SDS011;55336;43.062;25.626;2023-03-01T19:22:52;18.75;;;13.20;;
68384;SDS011;55336;43.062;25.626;2023-03-01T19:27:44;13.15;;;11.85;;
68384;SDS011;55336;43.062;25.626;2023-03-01T19:30:15;15.05;;;13.43;;